sensor_id;sensor_type;location;lat;lon;timestamp;temperature;humidity
34406;DHT22;20658;45.630;8.886;2023-07-02T00:01:57;21.10;96.00
34406;DHT22;20658;45.630;8.886;2023-07-02T00:04:31;21.00;95.90
34406;DHT22;20658;45.630;8.886;2023-07-02T00:07:05;21.00;96.20
34406;DHT22;20658;45.630;8.886;2023-07-02T00:09:39;21.00;96.30
34406;DHT22;20658;45.630;8.886;2023-07-02T00:12:13;20.90;96.60
34406;DHT22;20658;45.630;8.886;2023-07-02T00:14:47;21.00;96.70
34406;DHT22;20658;45.630;8.886;2023-07-02T00:17:22;20.90;96.70
34406;DHT22;20658;45.630;8.886;2023-07-02T00:19:55;20.90;96.90
34406;DHT22;20658;45.630;8.886;2023-07-02T00:22:29;20.90;96.80
34406;DHT22;20658;45.630;8.886;2023-07-02T00:25:03;20.90;97.00
34406;DHT22;20658;45.630;8.886;2023-07-02T00:27:37;20.90;97.50
34406;DHT22;20658;45.630;8.886;2023-07-02T00:30:11;20.80;97.60
34406;DHT22;20658;45.630;8.886;2023-07-02T00:32:46;20.80;97.90
34406;DHT22;20658;45.630;8.886;2023-07-02T00:35:20;20.70;98.40
34406;DHT22;20658;45.630;8.886;2023-07-02T00:37:53;20.60;98.50
34406;DHT22;20658;45.630;8.886;2023-07-02T00:40:27;20.60;98.70
34406;DHT22;20658;45.630;8.886;2023-07-02T00:43:00;20.70;99.00
34406;DHT22;20658;45.630;8.886;2023-07-02T00:45:34;20.60;98.70
34406;DHT22;20658;45.630;8.886;2023-07-02T00:48:04;20.50;98.80
34406;DHT22;20658;45.630;8.886;2023-07-02T00:50:33;20.50;99.10
34406;DHT22;20658;45.630;8.886;2023-07-02T00:53:06;20.50;99.20
34406;DHT22;20658;45.630;8.886;2023-07-02T00:55:40;20.40;99.00
34406;DHT22;20658;45.630;8.886;2023-07-02T00:58:13;20.40;99.10
34406;DHT22;20658;45.630;8.886;2023-07-02T01:00:47;20.40;99.40
34406;DHT22;20658;45.630;8.886;2023-07-02T01:03:22;20.40;99.50
34406;DHT22;20658;45.630;8.886;2023-07-02T01:05:57;20.40;99.40
34406;DHT22;20658;45.630;8.886;2023-07-02T01:08:30;20.30;99.60
34406;DHT22;20658;45.630;8.886;2023-07-02T01:11:04;20.30;99.80
34406;DHT22;20658;45.630;8.886;2023-07-02T01:13:38;20.30;99.70
34406;DHT22;20658;45.630;8.886;2023-07-02T01:16:12;20.30;99.80
34406;DHT22;20658;45.630;8.886;2023-07-02T01:18:47;20.30;99.50
34406;DHT22;20658;45.630;8.886;2023-07-02T01:21:19;20.20;99.40
34406;DHT22;20658;45.630;8.886;2023-07-02T01:23:54;20.20;99.00
34406;DHT22;20658;45.630;8.886;2023-07-02T01:26:29;20.20;99.60
34406;DHT22;20658;45.630;8.886;2023-07-02T01:29:15;20.20;99.40
34406;DHT22;20658;45.630;8.886;2023-07-02T01:31:45;20.20;99.80
34406;DHT22;20658;45.630;8.886;2023-07-02T01:34:19;20.20;99.80
34406;DHT22;20658;45.630;8.886;2023-07-02T01:36:54;20.20;99.90
34406;DHT22;20658;45.630;8.886;2023-07-02T01:39:28;20.20;99.90
34406;DHT22;20658;45.630;8.886;2023-07-02T01:42:09;20.00;99.90
34406;DHT22;20658;45.630;8.886;2023-07-02T01:44:44;20.00;99.90
34406;DHT22;20658;45.630;8.886;2023-07-02T01:47:18;20.00;99.90
34406;DHT22;20658;45.630;8.886;2023-07-02T01:49:46;20.00;99.90
34406;DHT22;20658;45.630;8.886;2023-07-02T01:52:22;20.00;99.90
34406;DHT22;20658;45.630;8.886;2023-07-02T01:54:55;19.90;99.90
34406;DHT22;20658;45.630;8.886;2023-07-02T01:57:30;19.90;99.90
34406;DHT22;20658;45.630;8.886;2023-07-02T02:00:05;19.80;99.90
34406;DHT22;20658;45.630;8.886;2023-07-02T02:02:43;19.80;99.90
34406;DHT22;20658;45.630;8.886;2023-07-02T02:05:17;19.80;99.90
34406;DHT22;20658;45.630;8.886;2023-07-02T02:07:52;19.80;99.90
34406;DHT22;20658;45.630;8.886;2023-07-02T02:10:26;19.80;99.90
34406;DHT22;20658;45.630;8.886;2023-07-02T02:12:59;19.80;99.90
34406;DHT22;20658;45.630;8.886;2023-07-02T02:15:33;19.70;99.90
34406;DHT22;20658;45.630;8.886;2023-07-02T02:18:06;19.70;99.90
34406;DHT22;20658;45.630;8.886;2023-07-02T02:20:40;19.70;99.90
34406;DHT22;20658;45.630;8.886;2023-07-02T02:23:10;19.70;99.90
34406;DHT22;20658;45.630;8.886;2023-07-02T02:25:43;19.70;99.90
34406;DHT22;20658;45.630;8.886;2023-07-02T02:28:12;19.70;99.90
34406;DHT22;20658;45.630;8.886;2023-07-02T02:30:45;19.70;99.90
34406;DHT22;20658;45.630;8.886;2023-07-02T02:33:20;19.70;99.90
34406;DHT22;20658;45.630;8.886;2023-07-02T02:35:54;19.60;99.90
34406;DHT22;20658;45.630;8.886;2023-07-02T02:38:29;19.60;99.90
34406;DHT22;20658;45.630;8.886;2023-07-02T02:41:03;19.60;99.90
34406;DHT22;20658;45.630;8.886;2023-07-02T02:43:41;19.50;99.90
34406;DHT22;20658;45.630;8.886;2023-07-02T02:46:12;19.50;99.90
34406;DHT22;20658;45.630;8.886;2023-07-02T02:48:46;19.50;99.90
34406;DHT22;20658;45.630;8.886;2023-07-02T02:51:19;19.50;99.90
34406;DHT22;20658;45.630;8.886;2023-07-02T02:53:54;19.50;99.90
34406;DHT22;20658;45.630;8.886;2023-07-02T02:56:23;19.50;99.90
34406;DHT22;20658;45.630;8.886;2023-07-02T02:58:56;19.50;99.90
34406;DHT22;20658;45.630;8.886;2023-07-02T03:01:30;19.50;99.90
34406;DHT22;20658;45.630;8.886;2023-07-02T03:04:04;19.40;99.90
34406;DHT22;20658;45.630;8.886;2023-07-02T03:06:40;19.40;99.90
34406;DHT22;20658;45.630;8.886;2023-07-02T03:09:15;19.40;99.90
34406;DHT22;20658;45.630;8.886;2023-07-02T03:11:49;19.40;99.90
34406;DHT22;20658;45.630;8.886;2023-07-02T03:14:22;19.30;99.90
34406;DHT22;20658;45.630;8.886;2023-07-02T03:16:55;19.30;99.90
34406;DHT22;20658;45.630;8.886;2023-07-02T03:19:29;19.30;99.90
34406;DHT22;20658;45.630;8.886;2023-07-02T03:22:02;19.30;99.90
34406;DHT22;20658;45.630;8.886;2023-07-02T03:24:37;19.20;99.90
34406;DHT22;20658;45.630;8.886;2023-07-02T03:27:11;19.20;99.90
34406;DHT22;20658;45.630;8.886;2023-07-02T03:29:44;19.20;99.90
34406;DHT22;20658;45.630;8.886;2023-07-02T03:32:18;19.20;99.90
34406;DHT22;20658;45.630;8.886;2023-07-02T03:34:47;19.20;99.90
34406;DHT22;20658;45.630;8.886;2023-07-02T03:37:20;19.20;99.90
34406;DHT22;20658;45.630;8.886;2023-07-02T03:39:55;19.10;99.90
34406;DHT22;20658;45.630;8.886;2023-07-02T03:42:32;19.10;99.90
34406;DHT22;20658;45.630;8.886;2023-07-02T03:45:01;19.10;99.90
34406;DHT22;20658;45.630;8.886;2023-07-02T03:47:35;19.10;99.90
34406;DHT22;20658;45.630;8.886;2023-07-02T03:50:09;19.10;99.90
34406;DHT22;20658;45.630;8.886;2023-07-02T03:52:42;19.10;99.90
34406;DHT22;20658;45.630;8.886;2023-07-02T03:55:18;19.10;99.90
34406;DHT22;20658;45.630;8.886;2023-07-02T03:57:52;19.10;99.90
34406;DHT22;20658;45.630;8.886;2023-07-02T04:00:26;19.10;99.90
34406;DHT22;20658;45.630;8.886;2023-07-02T04:02:59;19.20;99.90
34406;DHT22;20658;45.630;8.886;2023-07-02T04:05:34;19.20;99.90
34406;DHT22;20658;45.630;8.886;2023-07-02T04:08:07;19.20;99.90
34406;DHT22;20658;45.630;8.886;2023-07-02T04:10:42;19.20;99.90
34406;DHT22;20658;45.630;8.886;2023-07-02T04:13:11;19.20;99.90
34406;DHT22;20658;45.630;8.886;2023-07-02T04:15:44;19.20;99.90
34406;DHT22;20658;45.630;8.886;2023-07-02T04:18:18;19.20;99.90
34406;DHT22;20658;45.630;8.886;2023-07-02T04:20:51;19.20;99.90
34406;DHT22;20658;45.630;8.886;2023-07-02T04:23:25;19.30;99.90
34406;DHT22;20658;45.630;8.886;2023-07-02T04:26:00;19.30;99.90
34406;DHT22;20658;45.630;8.886;2023-07-02T04:28:33;19.30;99.90
34406;DHT22;20658;45.630;8.886;2023-07-02T04:31:07;19.40;99.90
34406;DHT22;20658;45.630;8.886;2023-07-02T04:33:40;19.40;99.90
34406;DHT22;20658;45.630;8.886;2023-07-02T04:36:14;19.30;99.90
34406;DHT22;20658;45.630;8.886;2023-07-02T04:38:47;19.40;99.90
34406;DHT22;20658;45.630;8.886;2023-07-02T04:41:22;19.50;99.90
34406;DHT22;20658;45.630;8.886;2023-07-02T04:43:55;19.50;99.90
34406;DHT22;20658;45.630;8.886;2023-07-02T04:46:29;19.50;99.90
34406;DHT22;20658;45.630;8.886;2023-07-02T04:49:02;19.60;99.90
34406;DHT22;20658;45.630;8.886;2023-07-02T04:51:36;19.60;99.90
34406;DHT22;20658;45.630;8.886;2023-07-02T04:54:09;19.70;99.90
34406;DHT22;20658;45.630;8.886;2023-07-02T04:56:50;19.70;99.90
34406;DHT22;20658;45.630;8.886;2023-07-02T04:59:24;19.80;99.90
34406;DHT22;20658;45.630;8.886;2023-07-02T05:01:58;20.00;99.90
34406;DHT22;20658;45.630;8.886;2023-07-02T05:04:31;20.50;99.90
34406;DHT22;20658;45.630;8.886;2023-07-02T05:07:05;20.90;99.50
34406;DHT22;20658;45.630;8.886;2023-07-02T05:09:39;21.30;97.50
34406;DHT22;20658;45.630;8.886;2023-07-02T05:12:14;21.60;95.10
34406;DHT22;20658;45.630;8.886;2023-07-02T05:14:47;21.90;94.10
34406;DHT22;20658;45.630;8.886;2023-07-02T05:17:20;22.20;92.80
34406;DHT22;20658;45.630;8.886;2023-07-02T05:19:54;22.30;91.70
34406;DHT22;20658;45.630;8.886;2023-07-02T05:22:22;22.50;90.90
34406;DHT22;20658;45.630;8.886;2023-07-02T05:24:56;22.60;90.60
34406;DHT22;20658;45.630;8.886;2023-07-02T05:27:31;22.90;89.60
34406;DHT22;20658;45.630;8.886;2023-07-02T05:30:05;23.20;88.20
34406;DHT22;20658;45.630;8.886;2023-07-02T05:32:39;23.30;86.60
34406;DHT22;20658;45.630;8.886;2023-07-02T05:35:13;23.60;85.60
34406;DHT22;20658;45.630;8.886;2023-07-02T05:37:46;23.90;83.90
34406;DHT22;20658;45.630;8.886;2023-07-02T05:40:20;24.00;81.60
34406;DHT22;20658;45.630;8.886;2023-07-02T05:42:55;23.80;81.70
34406;DHT22;20658;45.630;8.886;2023-07-02T05:45:23;23.90;81.80
34406;DHT22;20658;45.630;8.886;2023-07-02T05:47:59;24.00;81.10
34406;DHT22;20658;45.630;8.886;2023-07-02T05:50:32;24.20;80.40
34406;DHT22;20658;45.630;8.886;2023-07-02T05:53:06;24.40;78.00
34406;DHT22;20658;45.630;8.886;2023-07-02T05:55:42;24.40;78.40
34406;DHT22;20658;45.630;8.886;2023-07-02T05:58:17;24.80;77.00
34406;DHT22;20658;45.630;8.886;2023-07-02T06:00:50;24.90;75.70
34406;DHT22;20658;45.630;8.886;2023-07-02T06:03:23;25.10;75.10
34406;DHT22;20658;45.630;8.886;2023-07-02T06:05:57;25.10;75.20
34406;DHT22;20658;45.630;8.886;2023-07-02T06:08:30;25.60;73.20
34406;DHT22;20658;45.630;8.886;2023-07-02T06:11:04;25.90;72.60
34406;DHT22;20658;45.630;8.886;2023-07-02T06:13:39;26.20;71.00
34406;DHT22;20658;45.630;8.886;2023-07-02T06:16:07;26.30;70.10
34406;DHT22;20658;45.630;8.886;2023-07-02T06:18:41;26.50;68.80
34406;DHT22;20658;45.630;8.886;2023-07-02T06:21:14;26.40;67.70
34406;DHT22;20658;45.630;8.886;2023-07-02T06:23:48;26.70;67.10
34406;DHT22;20658;45.630;8.886;2023-07-02T06:26:21;27.00;66.60
34406;DHT22;20658;45.630;8.886;2023-07-02T06:28:56;27.20;65.80
34406;DHT22;20658;45.630;8.886;2023-07-02T06:31:30;27.50;65.30
34406;DHT22;20658;45.630;8.886;2023-07-02T06:34:03;27.50;63.70
34406;DHT22;20658;45.630;8.886;2023-07-02T06:36:37;27.40;63.90
34406;DHT22;20658;45.630;8.886;2023-07-02T06:39:10;27.60;63.20
34406;DHT22;20658;45.630;8.886;2023-07-02T06:41:44;27.90;61.30
34406;DHT22;20658;45.630;8.886;2023-07-02T06:44:19;28.10;61.80
34406;DHT22;20658;45.630;8.886;2023-07-02T06:46:52;28.10;61.90
34406;DHT22;20658;45.630;8.886;2023-07-02T06:49:26;28.20;60.50
34406;DHT22;20658;45.630;8.886;2023-07-02T06:51:59;28.20;59.10
34406;DHT22;20658;45.630;8.886;2023-07-02T06:54:33;28.30;59.80
34406;DHT22;20658;45.630;8.886;2023-07-02T06:57:06;28.00;60.00
34406;DHT22;20658;45.630;8.886;2023-07-02T06:59:36;27.70;59.00
34406;DHT22;20658;45.630;8.886;2023-07-02T07:02:09;28.00;60.20
34406;DHT22;20658;45.630;8.886;2023-07-02T07:04:43;28.20;59.20
34406;DHT22;20658;45.630;8.886;2023-07-02T07:07:16;28.40;58.40
34406;DHT22;20658;45.630;8.886;2023-07-02T07:09:50;28.60;57.40
34406;DHT22;20658;45.630;8.886;2023-07-02T07:12:24;28.60;56.20
34406;DHT22;20658;45.630;8.886;2023-07-02T07:14:58;28.60;57.00
34406;DHT22;20658;45.630;8.886;2023-07-02T07:17:32;28.40;58.10
34406;DHT22;20658;45.630;8.886;2023-07-02T07:20:06;28.70;57.00
34406;DHT22;20658;45.630;8.886;2023-07-02T07:22:40;28.70;56.50
34406;DHT22;20658;45.630;8.886;2023-07-02T07:25:14;28.90;56.60
34406;DHT22;20658;45.630;8.886;2023-07-02T07:27:47;29.00;56.40
34406;DHT22;20658;45.630;8.886;2023-07-02T07:30:22;29.00;56.60
34406;DHT22;20658;45.630;8.886;2023-07-02T07:32:56;29.00;55.80
34406;DHT22;20658;45.630;8.886;2023-07-02T07:35:29;28.90;55.80
34406;DHT22;20658;45.630;8.886;2023-07-02T07:38:03;28.90;56.10
34406;DHT22;20658;45.630;8.886;2023-07-02T07:40:36;28.70;56.60
34406;DHT22;20658;45.630;8.886;2023-07-02T07:43:10;29.10;57.00
34406;DHT22;20658;45.630;8.886;2023-07-02T07:45:45;29.20;56.10
34406;DHT22;20658;45.630;8.886;2023-07-02T07:48:18;29.50;55.80
34406;DHT22;20658;45.630;8.886;2023-07-02T07:50:53;29.60;55.20
34406;DHT22;20658;45.630;8.886;2023-07-02T07:53:26;29.20;54.90
34406;DHT22;20658;45.630;8.886;2023-07-02T07:56:00;29.50;55.80
34406;DHT22;20658;45.630;8.886;2023-07-02T07:58:33;29.40;55.60
34406;DHT22;20658;45.630;8.886;2023-07-02T08:01:08;29.20;55.40
34406;DHT22;20658;45.630;8.886;2023-07-02T08:03:41;29.40;55.20
34406;DHT22;20658;45.630;8.886;2023-07-02T08:06:15;29.40;54.40
34406;DHT22;20658;45.630;8.886;2023-07-02T08:08:48;29.20;55.50
34406;DHT22;20658;45.630;8.886;2023-07-02T08:11:21;29.20;55.30
34406;DHT22;20658;45.630;8.886;2023-07-02T08:13:55;29.20;56.10
34406;DHT22;20658;45.630;8.886;2023-07-02T08:16:30;29.50;55.70
34406;DHT22;20658;45.630;8.886;2023-07-02T08:19:03;29.70;54.90
34406;DHT22;20658;45.630;8.886;2023-07-02T08:21:37;29.80;54.40
34406;DHT22;20658;45.630;8.886;2023-07-02T08:24:10;29.80;54.00
34406;DHT22;20658;45.630;8.886;2023-07-02T08:26:44;29.70;54.20
34406;DHT22;20658;45.630;8.886;2023-07-02T08:29:19;29.80;54.00
34406;DHT22;20658;45.630;8.886;2023-07-02T08:31:54;29.50;53.20
34406;DHT22;20658;45.630;8.886;2023-07-02T08:34:27;29.60;53.50
34406;DHT22;20658;45.630;8.886;2023-07-02T08:37:01;29.80;53.80
34406;DHT22;20658;45.630;8.886;2023-07-02T08:39:34;30.10;53.20
34406;DHT22;20658;45.630;8.886;2023-07-02T08:42:09;29.90;52.50
34406;DHT22;20658;45.630;8.886;2023-07-02T08:44:45;29.60;52.60
34406;DHT22;20658;45.630;8.886;2023-07-02T08:47:21;29.60;53.30
34406;DHT22;20658;45.630;8.886;2023-07-02T08:49:55;29.90;52.30
34406;DHT22;20658;45.630;8.886;2023-07-02T08:52:28;30.10;52.60
34406;DHT22;20658;45.630;8.886;2023-07-02T08:55:02;30.40;51.50
34406;DHT22;20658;45.630;8.886;2023-07-02T08:57:36;30.60;50.80
34406;DHT22;20658;45.630;8.886;2023-07-02T09:00:10;30.70;50.90
34406;DHT22;20658;45.630;8.886;2023-07-02T09:02:46;30.00;51.90
34406;DHT22;20658;45.630;8.886;2023-07-02T09:05:19;30.20;52.50
34406;DHT22;20658;45.630;8.886;2023-07-02T09:07:53;30.50;51.90
34406;DHT22;20658;45.630;8.886;2023-07-02T09:10:28;30.10;51.30
34406;DHT22;20658;45.630;8.886;2023-07-02T09:13:03;29.90;51.30
34406;DHT22;20658;45.630;8.886;2023-07-02T09:15:38;29.90;51.00
34406;DHT22;20658;45.630;8.886;2023-07-02T09:18:20;30.20;51.90
34406;DHT22;20658;45.630;8.886;2023-07-02T09:20:56;30.60;50.80
34406;DHT22;20658;45.630;8.886;2023-07-02T09:23:33;30.50;50.20
34406;DHT22;20658;45.630;8.886;2023-07-02T09:26:08;30.50;50.60
34406;DHT22;20658;45.630;8.886;2023-07-02T09:29:00;30.60;50.20
34406;DHT22;20658;45.630;8.886;2023-07-02T09:31:43;30.40;50.40
34406;DHT22;20658;45.630;8.886;2023-07-02T09:34:19;30.30;51.60
34406;DHT22;20658;45.630;8.886;2023-07-02T09:36:47;30.70;50.40
34406;DHT22;20658;45.630;8.886;2023-07-02T09:39:19;31.00;50.00
34406;DHT22;20658;45.630;8.886;2023-07-02T09:41:53;30.90;49.30
34406;DHT22;20658;45.630;8.886;2023-07-02T09:44:28;31.10;49.70
34406;DHT22;20658;45.630;8.886;2023-07-02T09:47:04;31.10;48.50
34406;DHT22;20658;45.630;8.886;2023-07-02T09:49:43;31.10;48.60
34406;DHT22;20658;45.630;8.886;2023-07-02T09:52:24;30.80;48.80
34406;DHT22;20658;45.630;8.886;2023-07-02T09:54:59;31.00;50.20
34406;DHT22;20658;45.630;8.886;2023-07-02T09:57:28;31.40;48.30
34406;DHT22;20658;45.630;8.886;2023-07-02T09:59:59;31.10;48.20
34406;DHT22;20658;45.630;8.886;2023-07-02T10:02:32;31.50;48.50
34406;DHT22;20658;45.630;8.886;2023-07-02T10:05:07;31.50;47.90
34406;DHT22;20658;45.630;8.886;2023-07-02T10:07:36;31.50;47.90
34406;DHT22;20658;45.630;8.886;2023-07-02T10:10:10;31.70;47.90
34406;DHT22;20658;45.630;8.886;2023-07-02T10:12:46;31.80;48.30
34406;DHT22;20658;45.630;8.886;2023-07-02T10:15:24;32.00;48.30
34406;DHT22;20658;45.630;8.886;2023-07-02T10:18:00;32.10;48.10
34406;DHT22;20658;45.630;8.886;2023-07-02T10:20:39;31.80;47.70
34406;DHT22;20658;45.630;8.886;2023-07-02T10:23:14;31.50;48.50
34406;DHT22;20658;45.630;8.886;2023-07-02T10:25:48;31.80;48.70
34406;DHT22;20658;45.630;8.886;2023-07-02T10:28:21;32.10;48.10
34406;DHT22;20658;45.630;8.886;2023-07-02T10:30:58;32.30;47.50
34406;DHT22;20658;45.630;8.886;2023-07-02T10:33:32;32.50;46.60
34406;DHT22;20658;45.630;8.886;2023-07-02T10:36:17;32.70;45.80
34406;DHT22;20658;45.630;8.886;2023-07-02T10:38:52;32.80;46.10
34406;DHT22;20658;45.630;8.886;2023-07-02T10:41:26;32.80;45.70
34406;DHT22;20658;45.630;8.886;2023-07-02T10:44:08;32.80;45.60
34406;DHT22;20658;45.630;8.886;2023-07-02T10:46:46;32.80;46.30
34406;DHT22;20658;45.630;8.886;2023-07-02T10:49:20;32.90;45.60
34406;DHT22;20658;45.630;8.886;2023-07-02T10:51:58;33.00;46.30
34406;DHT22;20658;45.630;8.886;2023-07-02T10:54:42;32.90;45.30
34406;DHT22;20658;45.630;8.886;2023-07-02T10:57:19;32.90;44.60
34406;DHT22;20658;45.630;8.886;2023-07-02T10:59:53;32.80;45.60
34406;DHT22;20658;45.630;8.886;2023-07-02T11:02:37;32.80;45.10
34406;DHT22;20658;45.630;8.886;2023-07-02T11:05:11;32.60;45.90
34406;DHT22;20658;45.630;8.886;2023-07-02T11:07:46;32.30;45.50
34406;DHT22;20658;45.630;8.886;2023-07-02T11:10:26;32.70;45.50
34406;DHT22;20658;45.630;8.886;2023-07-02T11:13:10;33.00;45.70
34406;DHT22;20658;45.630;8.886;2023-07-02T11:15:44;33.20;45.20
34406;DHT22;20658;45.630;8.886;2023-07-02T11:18:18;33.20;44.70
34406;DHT22;20658;45.630;8.886;2023-07-02T11:20:52;33.30;44.10
34406;DHT22;20658;45.630;8.886;2023-07-02T11:23:27;33.30;44.40
34406;DHT22;20658;45.630;8.886;2023-07-02T11:26:03;33.30;44.90
34406;DHT22;20658;45.630;8.886;2023-07-02T11:28:48;33.00;44.50
34406;DHT22;20658;45.630;8.886;2023-07-02T11:31:26;33.40;44.50
34406;DHT22;20658;45.630;8.886;2023-07-02T11:34:00;33.30;43.80
34406;DHT22;20658;45.630;8.886;2023-07-02T11:36:33;33.00;44.20
34406;DHT22;20658;45.630;8.886;2023-07-02T11:39:08;33.00;44.80
34406;DHT22;20658;45.630;8.886;2023-07-02T11:41:43;33.10;45.60
34406;DHT22;20658;45.630;8.886;2023-07-02T11:44:17;33.60;44.40
34406;DHT22;20658;45.630;8.886;2023-07-02T11:46:51;33.70;43.80
34406;DHT22;20658;45.630;8.886;2023-07-02T11:49:25;33.90;43.60
34406;DHT22;20658;45.630;8.886;2023-07-02T11:51:58;34.00;44.20
34406;DHT22;20658;45.630;8.886;2023-07-02T11:54:33;33.60;43.70
34406;DHT22;20658;45.630;8.886;2023-07-02T11:57:06;34.00;44.00
34406;DHT22;20658;45.630;8.886;2023-07-02T11:59:41;34.20;43.30
34406;DHT22;20658;45.630;8.886;2023-07-02T12:02:14;34.20;42.00
34406;DHT22;20658;45.630;8.886;2023-07-02T12:04:48;33.80;41.90
34406;DHT22;20658;45.630;8.886;2023-07-02T12:07:21;33.90;42.80
34406;DHT22;20658;45.630;8.886;2023-07-02T12:09:56;33.50;43.50
34406;DHT22;20658;45.630;8.886;2023-07-02T12:12:29;33.80;43.30
34406;DHT22;20658;45.630;8.886;2023-07-02T12:15:04;34.00;43.60
34406;DHT22;20658;45.630;8.886;2023-07-02T12:17:38;34.20;43.00
34406;DHT22;20658;45.630;8.886;2023-07-02T12:20:11;34.20;43.40
34406;DHT22;20658;45.630;8.886;2023-07-02T12:22:45;34.50;43.10
34406;DHT22;20658;45.630;8.886;2023-07-02T12:25:20;34.50;43.10
34406;DHT22;20658;45.630;8.886;2023-07-02T12:27:54;34.50;42.30
34406;DHT22;20658;45.630;8.886;2023-07-02T12:30:28;34.00;42.50
34406;DHT22;20658;45.630;8.886;2023-07-02T12:33:01;34.00;43.10
34406;DHT22;20658;45.630;8.886;2023-07-02T12:35:35;34.20;43.20
34406;DHT22;20658;45.630;8.886;2023-07-02T12:38:08;34.50;42.40
34406;DHT22;20658;45.630;8.886;2023-07-02T12:40:43;34.40;41.60
34406;DHT22;20658;45.630;8.886;2023-07-02T12:43:17;34.00;41.80
34406;DHT22;20658;45.630;8.886;2023-07-02T12:45:51;34.40;42.00
34406;DHT22;20658;45.630;8.886;2023-07-02T12:48:24;34.70;41.60
34406;DHT22;20658;45.630;8.886;2023-07-02T12:50:54;34.40;42.10
34406;DHT22;20658;45.630;8.886;2023-07-02T12:53:28;34.60;42.80
34406;DHT22;20658;45.630;8.886;2023-07-02T12:56:04;35.00;42.80
34406;DHT22;20658;45.630;8.886;2023-07-02T12:58:38;35.30;42.20
34406;DHT22;20658;45.630;8.886;2023-07-02T13:01:14;35.20;41.80
34406;DHT22;20658;45.630;8.886;2023-07-02T13:03:50;35.20;41.20
34406;DHT22;20658;45.630;8.886;2023-07-02T13:06:23;35.20;41.40
34406;DHT22;20658;45.630;8.886;2023-07-02T13:08:58;34.90;40.50
34406;DHT22;20658;45.630;8.886;2023-07-02T13:11:27;34.80;42.00
34406;DHT22;20658;45.630;8.886;2023-07-02T13:14:01;34.40;43.00
34406;DHT22;20658;45.630;8.886;2023-07-02T13:16:35;34.70;43.10
34406;DHT22;20658;45.630;8.886;2023-07-02T13:19:08;34.90;42.30
34406;DHT22;20658;45.630;8.886;2023-07-02T13:21:42;34.60;42.70
34406;DHT22;20658;45.630;8.886;2023-07-02T13:24:16;34.00;43.70
34406;DHT22;20658;45.630;8.886;2023-07-02T13:26:51;34.30;43.40
34406;DHT22;20658;45.630;8.886;2023-07-02T13:29:25;34.30;43.10
34406;DHT22;20658;45.630;8.886;2023-07-02T13:31:58;34.40;42.60
34406;DHT22;20658;45.630;8.886;2023-07-02T13:34:32;34.10;43.00
34406;DHT22;20658;45.630;8.886;2023-07-02T13:37:05;34.50;42.90
34406;DHT22;20658;45.630;8.886;2023-07-02T13:39:39;34.50;42.00
34406;DHT22;20658;45.630;8.886;2023-07-02T13:42:13;34.20;42.90
34406;DHT22;20658;45.630;8.886;2023-07-02T13:44:47;34.10;42.60
34406;DHT22;20658;45.630;8.886;2023-07-02T13:47:21;34.40;42.70
34406;DHT22;20658;45.630;8.886;2023-07-02T13:49:54;34.70;41.20
34406;DHT22;20658;45.630;8.886;2023-07-02T13:52:28;34.90;40.80
34406;DHT22;20658;45.630;8.886;2023-07-02T13:55:01;35.00;41.30
34406;DHT22;20658;45.630;8.886;2023-07-02T13:57:36;35.10;40.70
34406;DHT22;20658;45.630;8.886;2023-07-02T14:00:12;35.30;40.50
34406;DHT22;20658;45.630;8.886;2023-07-02T14:02:46;35.00;40.60
34406;DHT22;20658;45.630;8.886;2023-07-02T14:05:19;34.80;40.20
34406;DHT22;20658;45.630;8.886;2023-07-02T14:07:53;34.90;40.00
34406;DHT22;20658;45.630;8.886;2023-07-02T14:10:27;35.00;40.60
34406;DHT22;20658;45.630;8.886;2023-07-02T14:12:56;34.70;40.20
34406;DHT22;20658;45.630;8.886;2023-07-02T14:15:27;34.80;40.60
34406;DHT22;20658;45.630;8.886;2023-07-02T14:17:55;34.60;40.70
34406;DHT22;20658;45.630;8.886;2023-07-02T14:20:29;34.60;41.10
34406;DHT22;20658;45.630;8.886;2023-07-02T14:23:02;34.70;40.50
34406;DHT22;20658;45.630;8.886;2023-07-02T14:25:31;34.80;40.40
34406;DHT22;20658;45.630;8.886;2023-07-02T14:28:04;34.90;40.30
34406;DHT22;20658;45.630;8.886;2023-07-02T14:30:39;34.90;39.70
34406;DHT22;20658;45.630;8.886;2023-07-02T14:33:14;35.30;39.00
34406;DHT22;20658;45.630;8.886;2023-07-02T14:35:48;34.60;39.50
34406;DHT22;20658;45.630;8.886;2023-07-02T14:38:25;35.00;39.70
34406;DHT22;20658;45.630;8.886;2023-07-02T14:41:00;35.20;39.50
34406;DHT22;20658;45.630;8.886;2023-07-02T14:43:34;35.60;39.10
34406;DHT22;20658;45.630;8.886;2023-07-02T14:46:08;35.40;37.50
34406;DHT22;20658;45.630;8.886;2023-07-02T14:48:43;35.10;39.30
34406;DHT22;20658;45.630;8.886;2023-07-02T14:51:17;35.40;38.00
34406;DHT22;20658;45.630;8.886;2023-07-02T14:53:51;35.80;37.50
34406;DHT22;20658;45.630;8.886;2023-07-02T14:56:24;36.00;37.80
34406;DHT22;20658;45.630;8.886;2023-07-02T14:58:58;36.00;37.00
34406;DHT22;20658;45.630;8.886;2023-07-02T15:01:33;35.70;37.60
34406;DHT22;20658;45.630;8.886;2023-07-02T15:04:06;34.90;38.80
34406;DHT22;20658;45.630;8.886;2023-07-02T15:06:39;35.20;38.00
34406;DHT22;20658;45.630;8.886;2023-07-02T15:09:13;35.40;37.00
34406;DHT22;20658;45.630;8.886;2023-07-02T15:11:48;35.00;36.50
34406;DHT22;20658;45.630;8.886;2023-07-02T15:14:21;35.10;37.90
34406;DHT22;20658;45.630;8.886;2023-07-02T15:16:56;35.40;38.40
34406;DHT22;20658;45.630;8.886;2023-07-02T15:19:30;36.00;37.60
34406;DHT22;20658;45.630;8.886;2023-07-02T15:22:04;36.30;36.70
34406;DHT22;20658;45.630;8.886;2023-07-02T15:24:38;36.10;35.80
34406;DHT22;20658;45.630;8.886;2023-07-02T15:27:11;36.30;36.80
34406;DHT22;20658;45.630;8.886;2023-07-02T15:29:45;36.60;36.60
34406;DHT22;20658;45.630;8.886;2023-07-02T15:32:19;36.70;36.30
34406;DHT22;20658;45.630;8.886;2023-07-02T15:34:53;36.80;35.90
34406;DHT22;20658;45.630;8.886;2023-07-02T15:37:28;36.70;35.90
34406;DHT22;20658;45.630;8.886;2023-07-02T15:40:02;36.60;35.20
34406;DHT22;20658;45.630;8.886;2023-07-02T15:42:35;36.50;35.10
34406;DHT22;20658;45.630;8.886;2023-07-02T15:45:09;36.70;35.00
34406;DHT22;20658;45.630;8.886;2023-07-02T15:47:45;36.80;34.10
34406;DHT22;20658;45.630;8.886;2023-07-02T15:50:18;37.10;34.20
34406;DHT22;20658;45.630;8.886;2023-07-02T15:52:52;37.30;34.20
34406;DHT22;20658;45.630;8.886;2023-07-02T15:55:25;37.20;34.50
34406;DHT22;20658;45.630;8.886;2023-07-02T15:57:59;37.30;34.80
34406;DHT22;20658;45.630;8.886;2023-07-02T16:00:32;37.30;34.60
34406;DHT22;20658;45.630;8.886;2023-07-02T16:03:07;37.50;34.80
34406;DHT22;20658;45.630;8.886;2023-07-02T16:05:40;37.70;34.80
34406;DHT22;20658;45.630;8.886;2023-07-02T16:08:14;37.90;34.60
34406;DHT22;20658;45.630;8.886;2023-07-02T16:10:43;38.10;34.80
34406;DHT22;20658;45.630;8.886;2023-07-02T16:13:17;37.90;33.80